sensor_id;sensor_type;location;lat;lon;timestamp;pressure;altitude;pressure_sealevel;temperature;humidity
9187;BME280;7273;48.902;9.410;2023-08-06T00:01:49;97297.69;;;15.54;75.71
9187;BME280;7273;48.902;9.410;2023-08-06T00:04:15;97296.09;;;15.61;75.51
9187;BME280;7273;48.902;9.410;2023-08-06T00:06:41;97289.19;;;15.55;75.75
9187;BME280;7273;48.902;9.410;2023-08-06T00:09:07;97285.63;;;15.63;75.77
9187;BME280;7273;48.902;9.410;2023-08-06T00:11:33;97280.50;;;15.62;75.74
9187;BME280;7273;48.902;9.410;2023-08-06T00:13:58;97282.44;;;15.61;75.88
9187;BME280;7273;48.902;9.410;2023-08-06T00:16:24;97275.72;;;15.59;76.12
9187;BME280;7273;48.902;9.410;2023-08-06T00:18:49;97290.00;;;15.56;76.19
9187;BME280;7273;48.902;9.410;2023-08-06T00:21:15;97283.41;;;15.57;76.13
9187;BME280;7273;48.902;9.410;2023-08-06T00:23:41;97273.78;;;15.59;76.17
9187;BME280;7273;48.902;9.410;2023-08-06T00:26:07;97271.84;;;15.60;76.27
9187;BME280;7273;48.902;9.410;2023-08-06T00:28:32;97288.09;;;15.56;76.12
9187;BME280;7273;48.902;9.410;2023-08-06T00:30:58;97278.13;;;15.60;76.23
9187;BME280;7273;48.902;9.410;2023-08-06T00:33:24;97278.25;;;15.64;76.20
9187;BME280;7273;48.902;9.410;2023-08-06T00:35:50;97266.09;;;15.61;76.49
9187;BME280;7273;48.902;9.410;2023-08-06T00:38:16;97257.78;;;15.58;76.44
9187;BME280;7273;48.902;9.410;2023-08-06T00:40:42;97258.88;;;15.57;76.67
9187;BME280;7273;48.902;9.410;2023-08-06T00:43:08;97268.16;;;15.64;76.71
9187;BME280;7273;48.902;9.410;2023-08-06T00:45:35;97257.78;;;15.58;76.65
9187;BME280;7273;48.902;9.410;2023-08-06T00:48:01;97258.88;;;15.57;76.65
9187;BME280;7273;48.902;9.410;2023-08-06T00:50:27;97261.44;;;15.62;76.88
9187;BME280;7273;48.902;9.410;2023-08-06T00:52:53;97254.88;;;15.63;76.93
9187;BME280;7273;48.902;9.410;2023-08-06T00:55:19;97246.81;;;15.66;76.90
9187;BME280;7273;48.902;9.410;2023-08-06T00:57:45;97249.22;;;15.68;77.06
9187;BME280;7273;48.902;9.410;2023-08-06T01:00:12;97251.63;;;15.69;76.76
9187;BME280;7273;48.902;9.410;2023-08-06T01:02:37;97250.00;;;15.68;76.18
9187;BME280;7273;48.902;9.410;2023-08-06T01:05:03;97248.09;;;15.69;76.38
9187;BME280;7273;48.902;9.410;2023-08-06T01:07:33;97241.97;;;15.72;76.34
9187;BME280;7273;48.902;9.410;2023-08-06T01:10:24;97243.63;;;15.64;76.87
9187;BME280;7273;48.902;9.410;2023-08-06T01:13:23;97247.94;;;15.65;77.35
9187;BME280;7273;48.902;9.410;2023-08-06T01:15:54;97242.50;;;15.65;76.75
9187;BME280;7273;48.902;9.410;2023-08-06T01:18:22;97236.91;;;15.62;76.92
9187;BME280;7273;48.902;9.410;2023-08-06T01:20:48;97242.50;;;15.65;76.75
9187;BME280;7273;48.902;9.410;2023-08-06T01:23:15;97228.72;;;15.62;77.10
9187;BME280;7273;48.902;9.410;2023-08-06T01:28:56;97222.94;;;15.63;77.81
9187;BME280;7273;48.902;9.410;2023-08-06T01:31:28;97221.00;;;15.64;76.93
9187;BME280;7273;48.902;9.410;2023-08-06T01:33:56;97217.81;;;15.62;76.81
9187;BME280;7273;48.902;9.410;2023-08-06T01:36:23;97214.16;;;15.58;76.58
9187;BME280;7273;48.902;9.410;2023-08-06T01:38:51;97210.63;;;15.57;76.45
9187;BME280;7273;48.902;9.410;2023-08-06T01:41:16;97198.78;;;15.53;76.96
9187;BME280;7273;48.902;9.410;2023-08-06T01:43:42;97204.72;;;15.55;76.86
9187;BME280;7273;48.902;9.410;2023-08-06T01:46:07;97205.69;;;15.51;76.82
9187;BME280;7273;48.902;9.410;2023-08-06T01:48:33;97204.63;;;15.43;76.59
9187;BME280;7273;48.902;9.410;2023-08-06T01:50:58;97196.13;;;15.45;76.47
9187;BME280;7273;48.902;9.410;2023-08-06T01:53:23;97195.97;;;15.41;76.73
9187;BME280;7273;48.902;9.410;2023-08-06T01:55:49;97202.88;;;15.39;76.52
9187;BME280;7273;48.902;9.410;2023-08-06T01:58:14;97205.13;;;15.37;76.48
9187;BME280;7273;48.902;9.410;2023-08-06T02:00:40;97204.63;;;15.35;76.75
9187;BME280;7273;48.902;9.410;2023-08-06T02:03:06;97197.13;;;15.32;76.23
9187;BME280;7273;48.902;9.410;2023-08-06T02:05:31;97199.84;;;15.32;76.65
9187;BME280;7273;48.902;9.410;2023-08-06T02:07:57;97196.66;;;15.30;76.62
9187;BME280;7273;48.902;9.410;2023-08-06T02:10:22;97193.91;;;15.30;77.04
9187;BME280;7273;48.902;9.410;2023-08-06T02:12:47;97195.03;;;15.29;76.99
9187;BME280;7273;48.902;9.410;2023-08-06T02:15:13;97181.41;;;15.29;77.20
9187;BME280;7273;48.902;9.410;2023-08-06T02:17:38;97186.84;;;15.29;76.66
9187;BME280;7273;48.902;9.410;2023-08-06T02:20:04;97183.03;;;15.30;76.79
9187;BME280;7273;48.902;9.410;2023-08-06T02:22:30;97183.03;;;15.30;76.37
9187;BME280;7273;48.902;9.410;2023-08-06T02:24:55;97185.41;;;15.31;76.41
9187;BME280;7273;48.902;9.410;2023-08-06T02:27:20;97177.25;;;15.31;76.74
9187;BME280;7273;48.902;9.410;2023-08-06T02:29:46;97163.94;;;15.30;76.67
9187;BME280;7273;48.902;9.410;2023-08-06T02:32:11;97167.47;;;15.30;76.33
9187;BME280;7273;48.902;9.410;2023-08-06T02:34:37;97162.66;;;15.27;76.51
9187;BME280;7273;48.902;9.410;2023-08-06T02:37:02;97159.59;;;15.29;76.49
9187;BME280;7273;48.902;9.410;2023-08-06T02:39:28;97160.41;;;15.29;76.34
9187;BME280;7273;48.902;9.410;2023-08-06T02:41:53;97156.44;;;15.27;76.51
9187;BME280;7273;48.902;9.410;2023-08-06T02:44:18;97151.31;;;15.25;76.42
9187;BME280;7273;48.902;9.410;2023-08-06T02:46:44;97151.66;;;15.24;76.72
9187;BME280;7273;48.902;9.410;2023-08-06T02:49:10;97141.06;;;15.22;77.07
9187;BME280;7273;48.902;9.410;2023-08-06T02:51:35;97148.44;;;15.22;76.76
9187;BME280;7273;48.902;9.410;2023-08-06T02:54:01;97150.19;;;15.26;76.80
9187;BME280;7273;48.902;9.410;2023-08-06T02:56:26;97141.19;;;15.26;76.77
9187;BME280;7273;48.902;9.410;2023-08-06T02:58:51;97136.91;;;15.25;76.96
9187;BME280;7273;48.902;9.410;2023-08-06T03:01:17;97139.63;;;15.25;76.17
9187;BME280;7273;48.902;9.410;2023-08-06T03:03:42;97138.97;;;15.28;76.76
9187;BME280;7273;48.902;9.410;2023-08-06T03:06:08;97139.13;;;15.23;76.71
9187;BME280;7273;48.902;9.410;2023-08-06T03:08:33;97138.34;;;15.22;76.64
9187;BME280;7273;48.902;9.410;2023-08-06T03:10:58;97127.44;;;15.22;76.49
9187;BME280;7273;48.902;9.410;2023-08-06T03:13:24;97123.94;;;15.22;76.47
9187;BME280;7273;48.902;9.410;2023-08-06T03:18:19;97129.56;;;15.17;76.85
9187;BME280;7273;48.902;9.410;2023-08-06T03:20:45;97126.84;;;15.17;76.48
9187;BME280;7273;48.902;9.410;2023-08-06T03:23:10;97119.34;;;15.14;76.33
9187;BME280;7273;48.902;9.410;2023-08-06T03:25:35;97115.34;;;15.11;76.50
9187;BME280;7273;48.902;9.410;2023-08-06T03:28:02;97110.53;;;15.08;76.45
9187;BME280;7273;48.902;9.410;2023-08-06T03:30:28;97115.84;;;15.05;76.44
9187;BME280;7273;48.902;9.410;2023-08-06T03:32:53;97114.25;;;15.04;76.05
9187;BME280;7273;48.902;9.410;2023-08-06T03:35:18;97115.53;;;14.98;76.28
9187;BME280;7273;48.902;9.410;2023-08-06T03:37:44;97117.50;;;14.97;76.28
9187;BME280;7273;48.902;9.410;2023-08-06T03:40:10;97119.41;;;14.97;76.27
9187;BME280;7273;48.902;9.410;2023-08-06T03:42:35;97118.94;;;14.95;75.94
9187;BME280;7273;48.902;9.410;2023-08-06T03:45:00;97120.06;;;14.94;76.03
9187;BME280;7273;48.902;9.410;2023-08-06T03:47:26;97129.22;;;14.89;76.33
9187;BME280;7273;48.902;9.410;2023-08-06T03:49:51;97128.56;;;14.92;76.05
9187;BME280;7273;48.902;9.410;2023-08-06T03:52:17;97127.75;;;14.92;76.25
9187;BME280;7273;48.902;9.410;2023-08-06T03:54:42;97125.22;;;14.87;76.66
9187;BME280;7273;48.902;9.410;2023-08-06T03:57:08;97126.84;;;14.88;76.49
9187;BME280;7273;48.902;9.410;2023-08-06T03:59:34;97124.88;;;14.88;76.23
9187;BME280;7273;48.902;9.410;2023-08-06T04:01:59;97122.97;;;14.89;76.25
9187;BME280;7273;48.902;9.410;2023-08-06T04:04:24;97126.94;;;14.91;76.32
9187;BME280;7273;48.902;9.410;2023-08-06T04:06:50;97121.06;;;14.89;76.04
9187;BME280;7273;48.902;9.410;2023-08-06T04:09:15;97122.50;;;14.87;76.43
9187;BME280;7273;48.902;9.410;2023-08-06T04:11:41;97121.91;;;14.81;76.52
9187;BME280;7273;48.902;9.410;2023-08-06T04:14:06;97119.50;;;14.79;76.09
9187;BME280;7273;48.902;9.410;2023-08-06T04:16:32;97120.75;;;14.82;76.18
9187;BME280;7273;48.902;9.410;2023-08-06T04:18:57;97117.72;;;14.75;76.60
9187;BME280;7273;48.902;9.410;2023-08-06T04:21:23;97121.91;;;14.72;76.44
9187;BME280;7273;48.902;9.410;2023-08-06T04:23:48;97124.66;;;14.72;76.22
9187;BME280;7273;48.902;9.410;2023-08-06T04:26:14;97123.03;;;14.71;76.34
9187;BME280;7273;48.902;9.410;2023-08-06T04:28:39;97125.75;;;14.71;76.50
9187;BME280;7273;48.902;9.410;2023-08-06T04:31:05;97128.03;;;14.69;76.97
9187;BME280;7273;48.902;9.410;2023-08-06T04:33:30;97137.28;;;14.68;76.90
9187;BME280;7273;48.902;9.410;2023-08-06T04:35:56;97133.47;;;14.69;76.93
9187;BME280;7273;48.902;9.410;2023-08-06T04:38:23;97137.94;;;14.65;76.97
9187;BME280;7273;48.902;9.410;2023-08-06T04:40:49;97132.84;;;14.64;76.84
9187;BME280;7273;48.902;9.410;2023-08-06T04:43:15;97137.13;;;14.65;76.92
9187;BME280;7273;48.902;9.410;2023-08-06T04:45:54;97134.59;;;14.60;77.02
9187;BME280;7273;48.902;9.410;2023-08-06T04:48:20;97138.13;;;14.52;76.76
9187;BME280;7273;48.902;9.410;2023-08-06T04:50:47;97138.00;;;14.48;76.90
9187;BME280;7273;48.902;9.410;2023-08-06T04:53:13;97138.34;;;14.38;77.15
9187;BME280;7273;48.902;9.410;2023-08-06T04:55:38;97137.22;;;14.39;77.40
9187;BME280;7273;48.902;9.410;2023-08-06T04:58:04;97136.09;;;14.40;77.55
9187;BME280;7273;48.902;9.410;2023-08-06T05:00:29;97134.50;;;14.39;77.57
9187;BME280;7273;48.902;9.410;2023-08-06T05:02:55;97136.09;;;14.40;77.57
9187;BME280;7273;48.902;9.410;2023-08-06T05:05:20;97136.09;;;14.40;78.13
9187;BME280;7273;48.902;9.410;2023-08-06T05:07:49;97134.00;;;14.37;78.25
9187;BME280;7273;48.902;9.410;2023-08-06T05:10:15;97142.16;;;14.37;78.13
9187;BME280;7273;48.902;9.410;2023-08-06T05:12:40;97141.53;;;14.40;78.18
9187;BME280;7273;48.902;9.410;2023-08-06T05:15:06;97145.84;;;14.41;77.94
9187;BME280;7273;48.902;9.410;2023-08-06T05:17:32;97144.25;;;14.40;77.74
9187;BME280;7273;48.902;9.410;2023-08-06T05:19:57;97152.88;;;14.42;77.80
9187;BME280;7273;48.902;9.410;2023-08-06T05:22:23;97153.38;;;14.44;78.16
9187;BME280;7273;48.902;9.410;2023-08-06T05:24:48;97150.16;;;14.42;78.40
9187;BME280;7273;48.902;9.410;2023-08-06T05:27:13;97151.78;;;14.43;78.04
9187;BME280;7273;48.902;9.410;2023-08-06T05:29:39;97156.91;;;14.45;78.17
9187;BME280;7273;48.902;9.410;2023-08-06T05:32:04;97146.47;;;14.47;78.28
9187;BME280;7273;48.902;9.410;2023-08-06T05:34:30;97150.00;;;14.47;78.35
9187;BME280;7273;48.902;9.410;2023-08-06T05:36:55;97148.25;;;14.51;78.39
9187;BME280;7273;48.902;9.410;2023-08-06T05:39:21;97143.56;;;14.52;78.54
9187;BME280;7273;48.902;9.410;2023-08-06T05:41:46;97140.22;;;14.55;78.19
9187;BME280;7273;48.902;9.410;2023-08-06T05:44:11;97139.56;;;14.58;78.25
9187;BME280;7273;48.902;9.410;2023-08-06T05:46:37;97144.53;;;14.64;78.15
9187;BME280;7273;48.902;9.410;2023-08-06T05:49:02;97137.44;;;14.72;78.28
9187;BME280;7273;48.902;9.410;2023-08-06T05:51:28;97141.44;;;14.74;78.46
9187;BME280;7273;48.902;9.410;2023-08-06T05:53:54;97144.44;;;14.81;78.46
9187;BME280;7273;48.902;9.410;2023-08-06T05:56:19;97150.03;;;14.85;78.70
9187;BME280;7273;48.902;9.410;2023-08-06T05:58:45;97154.50;;;14.90;78.35
9187;BME280;7273;48.902;9.410;2023-08-06T06:01:11;97149.53;;;14.92;78.06
9187;BME280;7273;48.902;9.410;2023-08-06T06:03:37;97159.78;;;14.95;78.05
9187;BME280;7273;48.902;9.410;2023-08-06T06:06:02;97153.06;;;14.92;78.20
9187;BME280;7273;48.902;9.410;2023-08-06T06:08:28;97153.06;;;14.92;77.81
9187;BME280;7273;48.902;9.410;2023-08-06T06:10:54;97155.47;;;14.94;77.98
9187;BME280;7273;48.902;9.410;2023-08-06T06:13:19;97158.66;;;14.96;78.13
9187;BME280;7273;48.902;9.410;2023-08-06T06:15:46;97152.88;;;14.97;77.93
9187;BME280;7273;48.902;9.410;2023-08-06T06:18:13;97149.84;;;14.99;78.25
9187;BME280;7273;48.902;9.410;2023-08-06T06:20:38;97156.88;;;15.00;78.27
9187;BME280;7273;48.902;9.410;2023-08-06T06:23:03;97157.34;;;15.02;78.29
9187;BME280;7273;48.902;9.410;2023-08-06T06:25:29;97152.06;;;15.05;78.67
9187;BME280;7273;48.902;9.410;2023-08-06T06:27:54;97153.50;;;15.03;78.26
9187;BME280;7273;48.902;9.410;2023-08-06T06:30:19;97158.59;;;15.04;78.06
9187;BME280;7273;48.902;9.410;2023-08-06T06:32:45;97160.22;;;15.05;77.97
9187;BME280;7273;48.902;9.410;2023-08-06T06:35:10;97158.94;;;15.03;77.80
9187;BME280;7273;48.902;9.410;2023-08-06T06:37:36;97157.34;;;15.02;78.48
9187;BME280;7273;48.902;9.410;2023-08-06T06:40:01;97164.25;;;14.99;78.29
9187;BME280;7273;48.902;9.410;2023-08-06T06:42:27;97160.91;;;14.94;78.50
9187;BME280;7273;48.902;9.410;2023-08-06T06:44:52;97166.53;;;14.89;77.84
9187;BME280;7273;48.902;9.410;2023-08-06T06:47:17;97162.66;;;14.90;78.22
9187;BME280;7273;48.902;9.410;2023-08-06T06:49:43;97159.34;;;14.84;78.63
9187;BME280;7273;48.902;9.410;2023-08-06T06:52:08;97168.03;;;14.77;78.26
9187;BME280;7273;48.902;9.410;2023-08-06T06:54:34;97171.84;;;14.76;78.31
9187;BME280;7273;48.902;9.410;2023-08-06T06:56:59;97172.97;;;14.75;78.47
9187;BME280;7273;48.902;9.410;2023-08-06T06:59:24;97168.66;;;14.74;78.97
9187;BME280;7273;48.902;9.410;2023-08-06T07:01:50;97174.28;;;14.69;78.16
9187;BME280;7273;48.902;9.410;2023-08-06T07:04:15;97172.03;;;14.71;78.30
9187;BME280;7273;48.902;9.410;2023-08-06T07:06:40;97176.34;;;14.72;78.14
9187;BME280;7273;48.902;9.410;2023-08-06T07:09:06;97178.59;;;14.70;78.02
9187;BME280;7273;48.902;9.410;2023-08-06T07:11:31;97171.56;;;14.69;78.03
9187;BME280;7273;48.902;9.410;2023-08-06T07:13:57;97180.34;;;14.66;77.97
9187;BME280;7273;48.902;9.410;2023-08-06T07:16:24;97182.13;;;14.62;78.28
9187;BME280;7273;48.902;9.410;2023-08-06T07:18:51;97182.94;;;14.63;77.84
9187;BME280;7273;48.902;9.410;2023-08-06T07:21:17;97181.00;;;14.63;78.40
9187;BME280;7273;48.902;9.410;2023-08-06T07:23:43;97176.88;;;14.57;78.58
9187;BME280;7273;48.902;9.410;2023-08-06T07:26:08;97183.56;;;14.60;78.64
9187;BME280;7273;48.902;9.410;2023-08-06T07:28:34;97185.66;;;14.63;78.74
9187;BME280;7273;48.902;9.410;2023-08-06T07:30:59;97183.06;;;14.66;78.24
9187;BME280;7273;48.902;9.410;2023-08-06T07:33:25;97180.06;;;14.68;78.03
9187;BME280;7273;48.902;9.410;2023-08-06T07:35:50;97187.41;;;14.76;78.48
9187;BME280;7273;48.902;9.410;2023-08-06T07:38:16;97184.69;;;14.76;78.87
9187;BME280;7273;48.902;9.410;2023-08-06T07:40:41;97196.16;;;14.81;78.39
9187;BME280;7273;48.902;9.410;2023-08-06T07:43:07;97189.13;;;14.80;78.53
9187;BME280;7273;48.902;9.410;2023-08-06T07:45:34;97189.13;;;14.80;78.59
9187;BME280;7273;48.902;9.410;2023-08-06T07:48:00;97185.47;;;14.76;78.02
9187;BME280;7273;48.902;9.410;2023-08-06T07:50:25;97189.31;;;14.75;78.36
9187;BME280;7273;48.902;9.410;2023-08-06T07:52:50;97188.19;;;14.76;78.35
9187;BME280;7273;48.902;9.410;2023-08-06T07:55:16;97177.78;;;14.70;78.19
9187;BME280;7273;48.902;9.410;2023-08-06T07:57:41;97189.16;;;14.72;77.86
9187;BME280;7273;48.902;9.410;2023-08-06T08:00:07;97184.38;;;14.69;78.20
9187;BME280;7273;48.902;9.410;2023-08-06T08:02:32;97188.50;;;14.66;80.01
9187;BME280;7273;48.902;9.410;2023-08-06T08:04:58;97186.13;;;14.65;78.84
9187;BME280;7273;48.902;9.410;2023-08-06T08:07:23;97184.03;;;14.70;78.60
9187;BME280;7273;48.902;9.410;2023-08-06T08:09:49;97190.13;;;14.67;78.67
9187;BME280;7273;48.902;9.410;2023-08-06T08:12:14;97187.56;;;14.71;78.13
9187;BME280;7273;48.902;9.410;2023-08-06T08:14:40;97188.34;;;14.71;78.60
9187;BME280;7273;48.902;9.410;2023-08-06T08:17:05;97189.63;;;14.74;78.98
9187;BME280;7273;48.902;9.410;2023-08-06T08:19:32;97176.69;;;14.71;78.53
9187;BME280;7273;48.902;9.410;2023-08-06T08:21:57;97187.41;;;14.76;78.32
9187;BME280;7273;48.902;9.410;2023-08-06T08:24:23;97181.47;;;14.74;79.42
9187;BME280;7273;48.902;9.410;2023-08-06T08:26:52;97180.50;;;14.78;79.84
9187;BME280;7273;48.902;9.410;2023-08-06T08:29:19;97178.25;;;14.80;79.09
9187;BME280;7273;48.902;9.410;2023-08-06T08:31:45;97179.06;;;14.81;78.40
9187;BME280;7273;48.902;9.410;2023-08-06T08:34:10;97179.19;;;14.84;78.43
9187;BME280;7273;48.902;9.410;2023-08-06T08:36:36;97172.94;;;14.93;79.02
9187;BME280;7273;48.902;9.410;2023-08-06T08:39:01;97169.22;;;14.97;78.26
9187;BME280;7273;48.902;9.410;2023-08-06T08:41:30;97169.66;;;15.08;78.39
9187;BME280;7273;48.902;9.410;2023-08-06T08:43:58;97172.34;;;15.16;78.33
9187;BME280;7273;48.902;9.410;2023-08-06T08:46:25;97174.56;;;15.23;78.59
9187;BME280;7273;48.902;9.410;2023-08-06T08:48:52;97171.66;;;15.28;78.93
9187;BME280;7273;48.902;9.410;2023-08-06T08:51:19;97173.22;;;15.29;78.40
9187;BME280;7273;48.902;9.410;2023-08-06T08:53:46;97171.13;;;15.34;78.07
9187;BME280;7273;48.902;9.410;2023-08-06T08:56:13;97164.72;;;15.39;77.63
9187;BME280;7273;48.902;9.410;2023-08-06T08:58:39;97170.66;;;15.41;77.65
9187;BME280;7273;48.902;9.410;2023-08-06T09:01:06;97158.63;;;15.42;77.71
9187;BME280;7273;48.902;9.410;2023-08-06T09:03:32;97162.13;;;15.42;77.55
9187;BME280;7273;48.902;9.410;2023-08-06T09:05:59;97165.03;;;15.37;78.06
9187;BME280;7273;48.902;9.410;2023-08-06T09:08:29;97156.53;;;15.39;77.63
9187;BME280;7273;48.902;9.410;2023-08-06T09:10:57;97158.78;;;15.37;78.04
9187;BME280;7273;48.902;9.410;2023-08-06T09:13:23;97162.81;;;15.39;77.56
9187;BME280;7273;48.902;9.410;2023-08-06T09:15:49;97167.25;;;15.44;77.58
9187;BME280;7273;48.902;9.410;2023-08-06T09:18:25;97175.75;;;15.42;78.05
9187;BME280;7273;48.902;9.410;2023-08-06T09:20:51;97178.69;;;15.29;77.96
9187;BME280;7273;48.902;9.410;2023-08-06T09:23:16;97181.66;;;15.15;77.69
9187;BME280;7273;48.902;9.410;2023-08-06T09:25:42;97185.72;;;15.01;78.09
9187;BME280;7273;48.902;9.410;2023-08-06T09:28:07;97200.19;;;14.84;77.54
9187;BME280;7273;48.902;9.410;2023-08-06T09:30:35;97192.03;;;14.75;78.42
9187;BME280;7273;48.902;9.410;2023-08-06T09:33:01;97188.84;;;14.65;78.94
9187;BME280;7273;48.902;9.410;2023-08-06T09:35:31;97195.91;;;14.57;78.67
9187;BME280;7273;48.902;9.410;2023-08-06T09:38:14;97193.03;;;14.54;78.76
9187;BME280;7273;48.902;9.410;2023-08-06T09:40:40;97198.47;;;14.45;79.40
9187;BME280;7273;48.902;9.410;2023-08-06T09:43:06;97206.03;;;14.48;79.32
9187;BME280;7273;48.902;9.410;2023-08-06T09:45:33;97208.91;;;14.43;79.09
9187;BME280;7273;48.902;9.410;2023-08-06T09:48:00;97206.31;;;14.47;78.87
9187;BME280;7273;48.902;9.410;2023-08-06T09:50:31;97206.16;;;14.52;79.38
9187;BME280;7273;48.902;9.410;2023-08-06T09:52:58;97204.06;;;14.57;79.84
9187;BME280;7273;48.902;9.410;2023-08-06T09:55:24;97209.03;;;14.64;79.75
9187;BME280;7273;48.902;9.410;2023-08-06T09:57:52;97205.34;;;14.68;80.51
9187;BME280;7273;48.902;9.410;2023-08-06T10:00:18;97199.72;;;14.65;79.75
9187;BME280;7273;48.902;9.410;2023-08-06T10:02:45;97210.50;;;14.61;79.71
9187;BME280;7273;48.902;9.410;2023-08-06T10:05:11;97212.22;;;14.66;80.37
9187;BME280;7273;48.902;9.410;2023-08-06T10:07:36;97212.06;;;14.62;79.50
9187;BME280;7273;48.902;9.410;2023-08-06T10:10:04;97224.22;;;14.65;79.71
9187;BME280;7273;48.902;9.410;2023-08-06T10:12:34;97218.16;;;14.68;80.22
9187;BME280;7273;48.902;9.410;2023-08-06T10:15:02;97214.31;;;14.69;80.38
9187;BME280;7273;48.902;9.410;2023-08-06T10:17:31;97208.84;;;14.69;80.63
9187;BME280;7273;48.902;9.410;2023-08-06T10:19:58;97213.16;;;14.70;80.77
9187;BME280;7273;48.902;9.410;2023-08-06T10:22:24;97210.28;;;14.75;81.03
9187;BME280;7273;48.902;9.410;2023-08-06T10:24:57;97210.28;;;14.75;80.79
9187;BME280;7273;48.902;9.410;2023-08-06T10:27:34;97205.63;;;14.75;80.61
9187;BME280;7273;48.902;9.410;2023-08-06T10:30:25;97210.09;;;14.80;80.84
9187;BME280;7273;48.902;9.410;2023-08-06T10:33:02;97215.06;;;14.78;81.19
9187;BME280;7273;48.902;9.410;2023-08-06T10:35:48;97213.81;;;14.75;80.03
9187;BME280;7273;48.902;9.410;2023-08-06T10:38:18;97211.06;;;14.84;80.20
9187;BME280;7273;48.902;9.410;2023-08-06T10:41:01;97211.84;;;14.84;80.21
9187;BME280;7273;48.902;9.410;2023-08-06T10:43:34;97208.19;;;14.89;81.29
9187;BME280;7273;48.902;9.410;2023-08-06T10:46:09;97203.34;;;14.95;80.94
9187;BME280;7273;48.902;9.410;2023-08-06T10:48:39;97215.84;;;14.96;80.64
9187;BME280;7273;48.902;9.410;2023-08-06T10:51:09;97207.69;;;14.96;80.22
9187;BME280;7273;48.902;9.410;2023-08-06T10:53:35;97218.75;;;14.91;80.70
9187;BME280;7273;48.902;9.410;2023-08-06T10:56:01;97214.28;;;14.86;80.23
9187;BME280;7273;48.902;9.410;2023-08-06T10:58:33;97211.41;;;14.82;79.94
9187;BME280;7273;48.902;9.410;2023-08-06T11:00:58;97219.56;;;14.82;79.90
9187;BME280;7273;48.902;9.410;2023-08-06T11:03:25;97209.94;;;14.76;80.03
9187;BME280;7273;48.902;9.410;2023-08-06T11:05:51;97227.91;;;14.77;79.76
9187;BME280;7273;48.902;9.410;2023-08-06T11:08:27;97226.44;;;14.80;80.36
9187;BME280;7273;48.902;9.410;2023-08-06T11:10:53;97231.88;;;14.80;81.22
9187;BME280;7273;48.902;9.410;2023-08-06T11:13:19;97233.34;;;14.77;81.64
9187;BME280;7273;48.902;9.410;2023-08-06T11:15:45;97245.00;;;14.78;83.21
9187;BME280;7273;48.902;9.410;2023-08-06T11:18:11;97251.09;;;14.75;81.74
9187;BME280;7273;48.902;9.410;2023-08-06T11:20:37;97253.03;;;14.74;82.42
9187;BME280;7273;48.902;9.410;2023-08-06T11:23:03;97255.28;;;14.72;82.15
9187;BME280;7273;48.902;9.410;2023-08-06T11:25:29;97273.03;;;14.70;82.26
9187;BME280;7273;48.902;9.410;2023-08-06T11:27:55;97256.88;;;14.65;81.76
9187;BME280;7273;48.902;9.410;2023-08-06T11:30:21;97259.59;;;14.65;81.25
9187;BME280;7273;48.902;9.410;2023-08-06T11:32:47;97264.59;;;14.63;80.73
9187;BME280;7273;48.902;9.410;2023-08-06T11:35:14;97266.19;;;14.64;80.76
9187;BME280;7273;48.902;9.410;2023-08-06T11:37:43;97260.72;;;14.64;81.26
9187;BME280;7273;48.902;9.410;2023-08-06T11:40:10;97262.31;;;14.65;81.42
9187;BME280;7273;48.902;9.410;2023-08-06T11:42:36;97261.38;;;14.69;82.01
9187;BME280;7273;48.902;9.410;2023-08-06T11:45:03;97252.88;;;14.71;80.70
9187;BME280;7273;48.902;9.410;2023-08-06T11:47:29;97254.00;;;14.70;81.89
9187;BME280;7273;48.902;9.410;2023-08-06T11:49:55;97261.84;;;14.71;81.27
9187;BME280;7273;48.902;9.410;2023-08-06T11:52:25;97263.78;;;14.71;81.08
9187;BME280;7273;48.902;9.410;2023-08-06T11:55:05;97263.94;;;14.66;81.06
9187;BME280;7273;48.902;9.410;2023-08-06T11:57:37;97274.19;;;14.60;81.55
9187;BME280;7273;48.902;9.410;2023-08-06T12:00:10;97279.00;;;14.55;81.72
9187;BME280;7273;48.902;9.410;2023-08-06T12:02:39;97280.09;;;14.45;82.47
9187;BME280;7273;48.902;9.410;2023-08-06T12:05:10;97286.84;;;14.39;83.73
9187;BME280;7273;48.902;9.410;2023-08-06T12:07:37;97299.50;;;14.35;83.89
9187;BME280;7273;48.902;9.410;2023-08-06T12:10:03;97301.38;;;14.26;82.89
9187;BME280;7273;48.902;9.410;2023-08-06T12:12:29;97314.97;;;14.26;83.01
9187;BME280;7273;48.902;9.410;2023-08-06T12:14:55;97309.72;;;14.30;82.24
9187;BME280;7273;48.902;9.410;2023-08-06T12:17:22;97322.34;;;14.26;82.00
9187;BME280;7273;48.902;9.410;2023-08-06T12:19:47;97327.28;;;14.24;82.41
9187;BME280;7273;48.902;9.410;2023-08-06T12:22:13;97320.53;;;14.21;81.93
9187;BME280;7273;48.902;9.410;2023-08-06T12:24:41;97337.00;;;14.16;81.15
9187;BME280;7273;48.902;9.410;2023-08-06T12:27:06;97328.22;;;14.11;83.67
9187;BME280;7273;48.902;9.410;2023-08-06T12:29:31;97327.06;;;14.03;83.35
9187;BME280;7273;48.902;9.410;2023-08-06T12:31:57;97336.03;;;14.04;83.57
9187;BME280;7273;48.902;9.410;2023-08-06T12:34:22;97335.38;;;13.98;82.18
9187;BME280;7273;48.902;9.410;2023-08-06T12:36:48;97340.16;;;13.93;81.94
9187;BME280;7273;48.902;9.410;2023-08-06T12:39:13;97349.91;;;13.94;81.77
9187;BME280;7273;48.902;9.410;2023-08-06T12:41:38;97349.25;;;13.88;82.08
9187;BME280;7273;48.902;9.410;2023-08-06T12:44:04;97359.66;;;13.86;81.25
9187;BME280;7273;48.902;9.410;2023-08-06T12:46:30;97363.16;;;13.87;81.59
9187;BME280;7273;48.902;9.410;2023-08-06T12:48:56;97366.50;;;13.84;82.90
9187;BME280;7273;48.902;9.410;2023-08-06T12:51:23;97366.81;;;13.82;83.65
9187;BME280;7273;48.902;9.410;2023-08-06T12:53:49;97367.31;;;13.84;82.18
9187;BME280;7273;48.902;9.410;2023-08-06T12:56:14;97377.19;;;13.80;82.23
9187;BME280;7273;48.902;9.410;2023-08-06T12:58:39;97370.47;;;13.78;82.59
9187;BME280;7273;48.902;9.410;2023-08-06T13:01:05;97373.53;;;13.76;83.41
9187;BME280;7273;48.902;9.410;2023-08-06T13:03:30;97367.75;;;13.78;83.56
9187;BME280;7273;48.902;9.410;2023-08-06T13:05:56;97372.06;;;13.79;83.60
9187;BME280;7273;48.902;9.410;2023-08-06T13:08:23;97377.50;;;13.79;83.60
9187;BME280;7273;48.902;9.410;2023-08-06T13:10:48;97380.41;;;13.82;82.86
9187;BME280;7273;48.902;9.410;2023-08-06T13:13:14;97384.72;;;13.83;81.83
9187;BME280;7273;48.902;9.410;2023-08-06T13:15:39;97385.88;;;13.91;82.31
9187;BME280;7273;48.902;9.410;2023-08-06T13:18:04;97396.63;;;13.96;82.96
9187;BME280;7273;48.902;9.410;2023-08-06T13:20:30;97386.25;;;13.98;82.54
9187;BME280;7273;48.902;9.410;2023-08-06T13:22:57;97378.72;;;14.03;82.12
9187;BME280;7273;48.902;9.410;2023-08-06T13:25:23;97384.81;;;14.09;82.53